メインページ
METAR-TAF:

METAR-TAF

空港 :

ロンドン・ヒースロー空港, イングランド

緯度: 51-29N, 経度: 000-27W, 海抜: 24m

現時点の気象観測

当レポートは36分前の05:20(UTC)に作成
南西の風 5kt
気温 10°C
湿度 93%
気圧 1023 hPa
視程10km以上

METAR: EGLL 200520Z AUTO 23005KT 9999 NCD 10/09 Q1023 NOSIG

時間: 06:56 (05:56 UTC)

予報

当レポートは59分前の04:57(UTC)に作成
予報は20日の 06時(UTC)から 21日の 12時(UTC)まで有効
西/南西の風 6kt
視程10km以上
高度3500ftの雲は散在している
20日の 19時(UTC)から 21日の 03時(UTC)まで一時的に
視程: 6000m
高度1200ftの千切れ雲あり
小雨
確率 30% :
20日の 21時(UTC)から 21日の 03時(UTC)まで一時的に
南東の風 10kt
視程: 2500m
高度800ftの千切れ雲あり
雨, 霧雨
21日の 03時(UTC)から 21日の 06時(UTC)まで徐々に
視程: 7000m
高度300ftの雲は散在している
高度600ftの千切れ雲あり
確率 30% :
21日の 03時(UTC)から 21日の 10時(UTC)まで一時的に
視程: 3500m
高度300ftの千切れ雲あり
小雨, 霧雨

TAF: EGLL 200457Z 2006/2112 25006KT 9999 SCT035 TEMPO 2019/2103 6000 -RA BKN012 PROB30 TEMPO 2021/2103 13010KT 2500 RADZ BKN008 BECMG 2103/2106 7000 SCT003 BKN006 PROB30 TEMPO 2103/2110 3500 -RADZ BKN003

4,000以上の空港の気象観測と天気予報(METAR報とTAF報)

利用可能な観測所は地図上に黄色い丸と赤い丸で示す。

丸の上にカーソルを重ねると観測所名を参照できる。

次にクリックすると気象観測と天気予報を参照できる。

マップの切り替え:黒色「×」印の緑ボタンをクリックして拡大、「-」印の緑ボタンをクリックして縮小、緑色の三角印をクリックして隣りの地図に切り替え


METAR-TAF: